Time;durP1;ratioP1;P1;durP2;ratioP2;P2;SDS_P1;SDS_P2;PMS_P1;PMS_P2;Temp;Humidity;BMP_temperature;BMP_pressure;BME280_temperature;BME280_humidity;BME280_pressure;Samples;Min_cycle;Max_cycle;Signal;HPM_P1;HPM_P2
2021/07/31 00:00:06;;;;;;;0.40;0.40;;;;;;;17.53;82.78;96464.19;29395;209;63013;-77
2021/07/31 00:00:38;;;;;;;0.40;0.40;;;;;;;17.52;82.92;96466.16;29395;251;63005;-76
2021/07/31 00:01:11;;;;;;;0.40;0.40;;;;;;;17.52;82.93;96457.13;29395;273;63009;-77
2021/07/31 00:01:43;;;;;;;0.40;0.40;;;;;;;17.53;82.68;96459.50;29395;197;63005;-75
2021/07/31 00:02:18;;;;;;;0.40;0.40;;;;;;;17.54;82.56;96465.78;29394;209;64009;-75
2021/07/31 00:02:53;;;;;;;0.40;0.40;;;;;;;17.55;82.47;96461.91;29395;199;63015;-75
2021/07/31 00:03:24;;;;;;;0.40;0.40;;;;;;;17.54;82.42;96472.09;29395;271;63009;-76
2021/07/31 00:03:56;;;;;;;0.40;0.40;;;;;;;17.53;82.38;96461.47;29394;198;64005;-74
2021/07/31 00:04:27;;;;;;;0.40;0.40;;;;;;;17.56;82.35;96466.25;29395;223;63009;-76
2021/07/31 00:04:58;;;;;;;0.40;0.40;;;;;;;17.57;82.25;96471.37;29395;260;63004;-76
2021/07/31 00:05:29;;;;;;;0.40;0.40;;;;;;;17.58;82.22;96466.69;29394;262;64009;-75
2021/07/31 00:06:01;;;;;;;0.40;0.40;;;;;;;17.57;82.20;96465.09;29395;202;63000;-76
2021/07/31 00:06:33;;;;;;;0.40;0.40;;;;;;;17.57;82.32;96465.09;29395;232;63020;-75
2021/07/31 00:07:04;;;;;;;0.40;0.40;;;;;;;17.56;82.80;96466.25;29395;197;63004;-75
2021/07/31 00:07:36;;;;;;;0.40;0.40;;;;;;;17.55;82.68;96470.94;29394;240;64009;-76
2021/07/31 00:08:07;;;;;;;0.40;0.40;;;;;;;17.54;82.62;96465.78;29395;213;63005;-76
2021/07/31 00:08:39;;;;;;;0.40;0.40;;;;;;;17.54;82.80;96465.78;29395;205;63009;-76
2021/07/31 00:09:22;;;;;;;0.40;0.40;;;;;;;17.53;82.67;96469.69;29395;250;63012;-76
2021/07/31 00:09:58;;;;;;;0.40;0.40;;;;;;;17.53;82.76;96469.69;29395;245;63009;-75
2021/07/31 00:10:33;;;;;;;0.40;0.40;;;;;;;17.51;82.55;96466.50;29395;210;63005;-76
2021/07/31 00:11:10;;;;;;;0.40;0.40;;;;;;;17.52;82.69;96473.56;29395;250;63009;-76
2021/07/31 00:11:41;;;;;;;0.40;0.40;;;;;;;17.52;82.56;96473.56;29395;202;63004;-76
2021/07/31 00:12:12;;;;;;;0.35;0.35;;;;;;;17.53;83.29;96475.16;29394;265;64009;-75
2021/07/31 00:12:47;;;;;;;0.40;0.40;;;;;;;17.52;83.26;96476.31;29395;202;63004;-59
2021/07/31 00:13:22;;;;;;;0.40;0.40;;;;;;;17.51;83.20;96474.72;29395;264;63008;-75
2021/07/31 00:13:54;;;;;;;0.40;0.40;;;;;;;17.50;83.24;96468.44;29395;249;63004;-75
2021/07/31 00:14:30;;;;;;;0.32;0.32;;;;;;;17.50;83.27;96464.91;29395;208;63016;-75
2021/07/31 00:15:02;;;;;;;0.40;0.40;;;;;;;17.49;83.32;96463.28;29395;236;63017;-75
2021/07/31 00:15:36;;;;;;;0.40;0.40;;;;;;;17.51;83.34;96466.50;29395;216;63017;-76
2021/07/31 00:16:07;;;;;;;0.30;0.30;;;;;;;17.49;83.16;96471.53;29394;232;64005;-75
2021/07/31 00:16:39;;;;;;;0.40;0.40;;;;;;;17.49;83.14;96463.28;29394;209;64009;-76
2021/07/31 00:17:10;;;;;;;0.40;0.40;;;;;;;17.46;83.30;96459.31;29395;197;63005;-75
2021/07/31 00:17:43;;;;;;;0.40;0.40;;;;;;;17.47;83.33;96465.59;29395;204;63009;-74
2021/07/31 00:18:15;;;;;;;0.40;0.40;;;;;;;17.45;83.56;96465.13;29394;214;63996;-74
2021/07/31 00:18:46;;;;;;;0.37;0.37;;;;;;;17.41;83.37;96462.28;29395;219;63009;-73
2021/07/31 00:19:18;;;;;;;0.40;0.40;;;;;;;17.40;83.61;96466.97;29395;335;63008;-74
2021/07/31 00:19:50;;;;;;;0.30;0.30;;;;;;;17.40;83.57;96466.97;29395;305;63009;-74
2021/07/31 00:20:21;;;;;;;0.30;0.30;;;;;;;17.40;83.49;96466.97;29395;203;63004;-74
2021/07/31 00:20:57;;;;;;;0.40;0.40;;;;;;;17.38;83.69;96469.25;29395;202;63008;-76
2021/07/31 00:21:29;;;;;;;0.40;0.40;;;;;;;17.38;83.53;96466.50;29395;308;63004;-76
2021/07/31 00:22:02;;;;;;;0.40;0.40;;;;;;;17.38;83.45;96469.25;29394;211;64009;-76
2021/07/31 00:22:33;;;;;;;0.40;0.40;;;;;;;17.38;83.45;96474.75;29395;209;63016;-76
2021/07/31 00:23:05;;;;;;;0.40;0.40;;;;;;;17.38;83.48;96474.75;29395;220;63009;-76
2021/07/31 00:23:36;;;;;;;0.40;0.40;;;;;;;17.39;83.43;96473.59;29395;228;63005;-75
2021/07/31 00:24:08;;;;;;;0.40;0.40;;;;;;;17.41;83.66;96473.25;29395;275;63009;-76
2021/07/31 00:24:39;;;;;;;0.40;0.40;;;;;;;17.40;83.56;96477.94;29395;299;63005;-76
2021/07/31 00:25:11;;;;;;;0.40;0.40;;;;;;;17.40;83.46;96472.44;29395;322;63009;-75
2021/07/31 00:25:46;;;;;;;0.40;0.40;;;;;;;17.39;83.35;96470.84;29395;248;63005;-75
2021/07/31 00:26:21;;;;;;;0.40;0.40;;;;;;;17.41;83.60;96474.06;29395;231;63009;-74
2021/07/31 00:26:52;;;;;;;0.40;0.40;;;;;;;17.41;83.23;96476.78;29395;256;63004;-74
2021/07/31 00:27:23;;;;;;;0.40;0.40;;;;;;;17.40;83.23;96472.44;29394;222;64009;-74
2021/07/31 00:27:54;;;;;;;0.40;0.40;;;;;;;17.41;83.44;96474.06;29394;215;64004;-74
2021/07/31 00:28:25;;;;;;;0.40;0.40;;;;;;;17.43;83.03;96466.28;29395;210;63008;-75
2021/07/31 00:28:57;;;;;;;0.40;0.40;;;;;;;17.42;83.45;96470.16;29394;209;64004;-75
2021/07/31 00:29:29;;;;;;;0.40;0.40;;;;;;;17.43;83.54;96473.72;29395;207;63009;-75
2021/07/31 00:30:00;;;;;;;0.40;0.40;;;;;;;17.41;83.62;96474.06;29395;285;63005;-75
2021/07/31 00:30:31;;;;;;;0.40;0.40;;;;;;;17.40;83.63;96475.19;29395;225;63009;-74
2021/07/31 00:31:02;;;;;;;0.40;0.40;;;;;;;17.39;83.90;96473.59;29395;226;63005;-74
2021/07/31 00:31:33;;;;;;;0.30;0.30;;;;;;;17.39;84.04;96479.09;29395;279;63005;-73
2021/07/31 00:32:06;;;;;;;0.40;0.40;;;;;;;17.38;83.91;96472.00;29395;203;63005;-75
2021/07/31 00:32:38;;;;;;;0.40;0.40;;;;;;;17.38;84.20;96474.75;29395;401;63009;-75
2021/07/31 00:33:10;;;;;;;0.40;0.40;;;;;;;17.37;84.13;96473.16;29395;229;63005;-74
2021/07/31 00:33:42;;;;;;;0.40;0.40;;;;;;;17.36;84.34;96468.00;29394;202;64009;-76
2021/07/31 00:34:13;;;;;;;0.40;0.40;;;;;;;17.36;84.54;96466.06;29395;215;63017;-75
2021/07/31 00:34:45;;;;;;;0.40;0.40;;;;;;;17.35;84.65;96469.94;29395;205;63009;-75
2021/07/31 00:35:16;;;;;;;0.52;0.52;;;;;;;17.34;84.27;96473.84;29395;196;63009;-75
2021/07/31 00:35:48;;;;;;;0.40;0.40;;;;;;;17.35;84.53;96474.63;29395;196;63009;-74
2021/07/31 00:36:19;;;;;;;0.75;0.75;;;;;;;17.34;84.29;96473.84;29395;239;63004;-75
2021/07/31 00:36:53;;;;;;;0.40;0.40;;;;;;;17.36;84.07;96476.22;29395;227;63009;-75
2021/07/31 00:37:25;;;;;;;0.40;0.40;;;;;;;17.36;84.21;96473.50;29394;225;64005;-75
2021/07/31 00:37:56;;;;;;;0.40;0.40;;;;;;;17.38;83.92;96479.44;29395;208;63009;-75
2021/07/31 00:38:28;;;;;;;0.40;0.40;;;;;;;17.38;83.72;96471.19;29395;203;63005;-75
2021/07/31 00:39:00;;;;;;;0.40;0.40;;;;;;;17.39;83.78;96478.28;29395;204;63019;-75
2021/07/31 00:39:38;;;;;;;0.40;0.40;;;;;;;17.39;83.42;96476.34;29395;343;63005;-75
2021/07/31 00:40:10;;;;;;;0.40;0.40;;;;;;;17.39;83.56;96476.34;29395;233;63009;-75
2021/07/31 00:40:41;;;;;;;0.40;0.40;;;;;;;17.41;83.27;96482.28;29395;239;63005;-76
2021/07/31 00:41:13;;;;;;;0.40;0.40;;;;;;;17.46;82.91;96486.72;29395;202;63009;-76
2021/07/31 00:41:44;;;;;;;0.40;0.40;;;;;;;17.48;82.73;96483.62;29394;206;64004;-74
2021/07/31 00:42:15;;;;;;;0.40;0.40;;;;;;;17.49;82.78;96477.00;29395;233;63009;-76
2021/07/31 00:42:47;;;;;;;0.40;0.40;;;;;;;17.49;82.67;96474.28;29395;275;63004;-75
2021/07/31 00:43:19;;;;;;;0.40;0.40;;;;;;;17.48;82.73;96475.41;29394;259;64009;-74
2021/07/31 00:43:51;;;;;;;0.40;0.40;;;;;;;17.49;82.95;96474.28;29395;227;63004;-74
2021/07/31 00:44:22;;;;;;;0.40;0.40;;;;;;;17.49;83.29;96474.28;29395;241;63009;-75
2021/07/31 00:44:54;;;;;;;0.40;0.40;;;;;;;17.48;83.32;96478.16;29395;207;63005;-75
2021/07/31 00:45:26;;;;;;;0.40;0.40;;;;;;;17.48;83.23;96478.16;29395;278;63013;-74
2021/07/31 00:45:58;;;;;;;0.40;0.40;;;;;;;17.48;82.97;96478.16;29395;264;63005;-76
2021/07/31 00:46:29;;;;;;;0.40;0.40;;;;;;;17.49;82.80;96474.28;29394;199;64009;-76
2021/07/31 00:47:02;;;;;;;0.40;0.40;;;;;;;17.50;83.07;96475.88;29395;222;63005;-75
2021/07/31 00:47:34;;;;;;;0.40;0.40;;;;;;;17.50;82.95;96481.34;29395;228;63009;-75
2021/07/31 00:48:05;;;;;;;0.40;0.40;;;;;;;17.51;83.20;96482.94;29395;209;63005;-75
2021/07/31 00:48:36;;;;;;;0.40;0.40;;;;;;;17.51;83.54;96471.97;29395;274;63009;-75
2021/07/31 00:49:07;;;;;;;0.40;0.40;;;;;;;17.52;83.46;96473.56;29395;239;63004;-76
2021/07/31 00:49:39;;;;;;;0.40;0.40;;;;;;;17.50;83.22;96486.84;29395;231;63009;-75
2021/07/31 00:50:12;;;;;;;0.40;0.40;;;;;;;17.49;83.04;96485.25;29395;212;63004;-76
2021/07/31 00:50:44;;;;;;;0.40;0.40;;;;;;;17.49;82.81;96479.75;29395;196;63009;-75
2021/07/31 00:51:16;;;;;;;0.40;0.40;;;;;;;17.48;82.59;96483.62;29395;222;63004;-76
2021/07/31 00:51:47;;;;;;;0.40;0.40;;;;;;;17.49;82.60;96482.50;29394;254;64009;-75
2021/07/31 00:52:19;;;;;;;0.40;0.40;;;;;;;17.48;83.03;96478.94;29395;216;63005;-75
2021/07/31 00:52:50;;;;;;;0.40;0.40;;;;;;;17.49;83.05;96479.75;29395;239;63009;-76
2021/07/31 00:53:22;;;;;;;0.37;0.37;;;;;;;17.48;83.44;96478.16;29395;214;63005;-75
2021/07/31 00:53:54;;;;;;;0.40;0.40;;;;;;;17.47;83.48;96471.06;29395;208;63009;-75
2021/07/31 00:54:27;;;;;;;0.32;0.32;;;;;;;17.47;83.09;96476.56;29395;220;63005;-77
2021/07/31 00:55:00;;;;;;;0.40;0.40;;;;;;;17.45;83.03;96474.16;29395;243;63009;-75
2021/07/31 00:55:32;;;;;;;0.40;0.40;;;;;;;17.46;82.83;96477.69;29395;209;63005;-74
2021/07/31 00:56:05;;;;;;;0.40;0.40;;;;;;;17.47;83.07;96482.03;29395;276;63009;-74
2021/07/31 00:56:40;;;;;;;0.40;0.40;;;;;;;17.49;82.52;96479.75;29394;213;64004;-75
2021/07/31 00:57:15;;;;;;;0.40;0.40;;;;;;;17.51;81.31;96482.94;29395;218;63009;-79
2021/07/31 00:57:49;;;;;;;0.40;0.40;;;;;;;17.53;79.57;96481.47;29395;250;63004;-76
2021/07/31 00:58:21;;;;;;;0.40;0.40;;;;;;;17.55;79.05;96473.69;29395;349;63009;-75
2021/07/31 00:58:52;;;;;;;0.40;0.40;;;;;;;17.60;79.05;96480.88;29394;230;64004;-75
2021/07/31 00:59:24;;;;;;;0.30;0.30;;;;;;;17.60;78.67;96481.66;29395;292;63009;-73
2021/07/31 00:59:56;;;;;;;0.40;0.40;;;;;;;17.60;78.43;96481.66;29395;197;63005;-76
2021/07/31 01:00:27;;;;;;;0.40;0.40;;;;;;;17.59;78.65;96471.03;29395;213;63009;-75
2021/07/31 01:00:59;;;;;;;0.40;0.40;;;;;;;17.62;78.41;96478.59;29394;211;64005;-75
2021/07/31 01:01:30;;;;;;;0.40;0.40;;;;;;;17.64;77.87;96476.28;29395;227;63009;-75
2021/07/31 01:02:02;;;;;;;0.40;0.40;;;;;;;17.65;77.40;96477.91;29395;227;63000;-76
2021/07/31 01:02:33;;;;;;;0.40;0.40;;;;;;;17.66;77.61;96474.03;29394;208;64009;-77
2021/07/31 01:03:05;;;;;;;0.40;0.40;;;;;;;17.65;77.57;96470.50;29395;202;63005;-76
2021/07/31 01:03:36;;;;;;;0.40;0.40;;;;;;;17.67;77.58;96470.13;29395;202;63009;-77
2021/07/31 01:04:08;;;;;;;0.40;0.40;;;;;;;17.65;77.34;96467.75;29395;287;63004;-76
2021/07/31 01:04:40;;;;;;;0.40;0.40;;;;;;;17.65;77.78;96470.50;29395;382;63009;-75
2021/07/31 01:05:12;;;;;;;0.35;0.35;;;;;;;17.63;77.37;96477.44;29395;197;63004;-77
2021/07/31 01:05:44;;;;;;;0.30;0.30;;;;;;;17.64;77.95;96476.28;29395;328;63026;-75
2021/07/31 01:06:15;;;;;;;0.40;0.40;;;;;;;17.63;77.80;96474.69;29395;202;63004;-76
2021/07/31 01:06:47;;;;;;;0.40;0.40;;;;;;;17.63;77.67;96477.44;29395;197;63008;-75
2021/07/31 01:07:18;;;;;;;0.40;0.40;;;;;;;17.62;77.78;96478.59;29395;237;63014;-76
2021/07/31 01:07:51;;;;;;;0.40;0.40;;;;;;;17.60;77.74;96475.38;29394;240;64009;-76
2021/07/31 01:08:26;;;;;;;0.40;0.40;;;;;;;17.60;78.39;96480.88;29394;252;64005;-77
2021/07/31 01:08:58;;;;;;;0.30;0.30;;;;;;;17.59;78.33;96482.00;29395;252;63009;-77
2021/07/31 01:09:29;;;;;;;0.40;0.40;;;;;;;17.59;78.57;96484.75;29395;197;63005;-75
2021/07/31 01:10:01;;;;;;;0.40;0.40;;;;;;;17.59;78.43;96484.75;29395;199;63009;-76
2021/07/31 01:10:33;;;;;;;0.40;0.40;;;;;;;17.58;78.54;96477.69;29395;205;63005;-75
2021/07/31 01:11:04;;;;;;;0.40;0.40;;;;;;;17.57;79.05;96484.31;29395;212;63009;-75
2021/07/31 01:11:36;;;;;;;0.40;0.40;;;;;;;17.56;79.16;96479.97;29395;245;63004;-76
2021/07/31 01:12:11;;;;;;;0.40;0.40;;;;;;;17.54;80.63;96477.56;29395;197;63015;-76
2021/07/31 01:12:44;;;;;;;0.40;0.40;;;;;;;17.53;80.70;96486.16;29394;198;64004;-76
2021/07/31 01:13:17;;;;;;;0.40;0.40;;;;;;;17.49;80.70;96480.56;29395;382;63009;-75
2021/07/31 01:13:50;;;;;;;0.40;0.40;;;;;;;17.48;80.46;96475.41;29395;217;63004;-76
2021/07/31 01:14:21;;;;;;;0.40;0.40;;;;;;;17.45;80.40;96479.66;29395;285;63008;-76
2021/07/31 01:14:53;;;;;;;0.35;0.35;;;;;;;17.43;80.65;96480.00;29395;307;63005;-77
2021/07/31 01:15:24;;;;;;;0.40;0.40;;;;;;;17.42;80.54;96478.41;29395;218;63009;-75
2021/07/31 01:16:03;;;;;;;0.40;0.40;;;;;;;17.42;80.79;96481.13;29395;221;63012;-76
2021/07/31 01:16:35;;;;;;;0.40;0.40;;;;;;;17.40;80.61;96480.69;29395;278;63009;-76
2021/07/31 01:17:11;;;;;;;0.32;0.32;;;;;;;17.38;80.42;96485.72;29395;212;63005;-57
2021/07/31 01:17:42;;;;;;;0.40;0.40;;;;;;;17.38;80.27;96482.97;29394;202;64008;-75
2021/07/31 01:18:13;;;;;;;0.40;0.40;;;;;;;17.38;79.93;96479.44;29395;244;63004;-75
2021/07/31 01:18:45;;;;;;;0.40;0.40;;;;;;;17.36;80.52;96488.00;29394;240;64009;-73
2021/07/31 01:19:16;;;;;;;0.40;0.40;;;;;;;17.35;79.18;96480.91;29395;199;63004;-74
2021/07/31 01:19:47;;;;;;;0.40;0.40;;;;;;;17.37;79.53;96481.38;29395;282;63016;-76
2021/07/31 01:20:18;;;;;;;0.40;0.40;;;;;;;17.38;79.23;96488.47;29395;238;63017;-74
2021/07/31 01:20:51;;;;;;;0.40;0.40;;;;;;;17.39;79.11;96486.50;29394;224;64008;-76
2021/07/31 01:21:42;;;;;;;0.40;0.40;;;;;;;17.39;78.95;96484.56;29395;203;63005;-75
2021/07/31 01:22:14;;;;;;;0.40;0.40;;;;;;;17.38;79.22;96485.72;29417;301;63009;-76
2021/07/31 01:22:45;;;;;;;0.40;0.40;;;;;;;17.37;79.22;96489.59;29395;212;63005;-75
2021/07/31 01:23:17;;;;;;;0.40;0.40;;;;;;;17.37;79.10;96486.84;29395;206;63009;-76
2021/07/31 01:23:48;;;;;;;0.40;0.40;;;;;;;17.34;77.25;96490.28;29395;244;63005;-77
2021/07/31 01:24:22;;;;;;;0.40;0.40;;;;;;;17.36;77.69;96489.94;29394;210;64009;-76
2021/07/31 01:24:53;;;;;;;0.37;0.37;;;;;;;17.37;77.14;96489.59;29394;226;64005;-76
2021/07/31 01:25:24;;;;;;;0.40;0.40;;;;;;;17.39;76.90;96487.31;29395;230;63024;-76
2021/07/31 01:25:56;;;;;;;0.40;0.40;;;;;;;17.39;75.61;96487.31;29395;232;63004;-77
2021/07/31 01:26:28;;;;;;;0.40;0.40;;;;;;;17.38;75.94;96487.66;29395;209;63009;-76
2021/07/31 01:26:59;;;;;;;0.40;0.40;;;;;;;17.40;76.28;96486.16;29394;274;64004;-74
2021/07/31 01:27:31;;;;;;;0.40;0.40;;;;;;;17.39;75.93;96487.31;29395;234;63009;-75
2021/07/31 01:28:03;;;;;;;0.40;0.40;;;;;;;17.41;75.71;96484.22;29395;297;63004;-75
2021/07/31 01:28:34;;;;;;;0.40;0.40;;;;;;;17.40;74.65;96483.44;29395;227;63013;-75
2021/07/31 01:29:08;;;;;;;0.40;0.40;;;;;;;17.39;75.11;96492.00;29395;218;63009;-75
2021/07/31 01:29:41;;;;;;;0.40;0.40;;;;;;;17.39;75.53;96487.31;29394;270;64009;-76
2021/07/31 01:30:12;;;;;;;0.40;0.40;;;;;;;17.36;75.64;96482.50;29395;203;63005;-75
2021/07/31 01:30:44;;;;;;;0.40;0.40;;;;;;;17.35;75.79;96489.16;29395;215;63009;-75
2021/07/31 01:31:15;;;;;;;0.40;0.40;;;;;;;17.32;75.68;96484.38;29395;228;63005;-76
2021/07/31 01:31:47;;;;;;;0.40;0.40;;;;;;;17.29;75.82;96487.81;29394;230;64009;-75
2021/07/31 01:32:18;;;;;;;0.40;0.40;;;;;;;17.28;76.55;96486.22;29395;198;63005;-77
2021/07/31 01:32:49;;;;;;;0.40;0.40;;;;;;;17.26;76.62;96487.69;29395;275;63009;-74
2021/07/31 01:33:20;;;;;;;0.40;0.40;;;;;;;17.25;76.93;96484.16;29395;239;63004;-78
2021/07/31 01:33:51;;;;;;;0.40;0.40;;;;;;;17.26;76.40;96485.75;29395;240;63009;-76
2021/07/31 01:34:23;;;;;;;0.40;0.40;;;;;;;17.25;76.11;96481.41;29394;310;64004;-75
2021/07/31 01:34:57;;;;;;;0.40;0.40;;;;;;;17.25;75.78;96492.38;29395;210;63009;-75
2021/07/31 01:35:32;;;;;;;0.40;0.40;;;;;;;17.25;76.04;96486.91;29395;196;63004;-74
2021/07/31 01:36:06;;;;;;;0.40;0.40;;;;;;;17.23;75.77;96483.69;29395;268;63008;-76
2021/07/31 01:36:37;;;;;;;0.40;0.40;;;;;;;17.24;75.65;96479.81;29395;236;63005;-76
2021/07/31 01:37:09;;;;;;;0.40;0.40;;;;;;;17.25;75.72;96481.41;29395;234;63009;-76
2021/07/31 01:37:40;;;;;;;0.40;0.40;;;;;;;17.27;73.93;96484.63;29394;214;64005;-76
2021/07/31 01:38:13;;;;;;;0.40;0.40;;;;;;;17.27;73.79;96479.13;29394;233;64009;-76
2021/07/31 01:38:44;;;;;;;0.40;0.40;;;;;;;17.25;73.71;96478.69;29395;205;63005;-75
2021/07/31 01:39:15;;;;;;;0.40;0.40;;;;;;;17.25;72.89;96486.09;29395;365;63009;-76
2021/07/31 01:39:47;;;;;;;0.40;0.40;;;;;;;17.23;72.34;96483.69;29395;211;63005;-75
2021/07/31 01:40:19;;;;;;;0.37;0.37;;;;;;;17.22;73.38;96476.62;29395;214;63009;-75
2021/07/31 01:40:50;;;;;;;0.40;0.40;;;;;;;17.20;73.66;96478.91;29395;228;63004;-76
2021/07/31 01:41:21;;;;;;;0.40;0.40;;;;;;;17.17;73.62;96479.59;29395;208;63009;-58
2021/07/31 01:41:56;;;;;;;0.40;0.40;;;;;;;17.20;74.18;96484.38;29395;222;63000;-71
2021/07/31 01:42:27;;;;;;;0.40;0.40;;;;;;;17.18;72.86;96475.72;29395;205;63009;-76
2021/07/31 01:43:00;;;;;;;0.40;0.40;;;;;;;17.19;72.73;96479.25;29394;229;64004;-76
2021/07/31 01:43:32;;;;;;;0.40;0.40;;;;;;;17.20;73.17;96478.91;29394;250;64008;-76
2021/07/31 01:44:04;;;;;;;0.40;0.40;;;;;;;17.19;72.57;96477.31;29395;253;63005;-76
2021/07/31 01:44:37;;;;;;;0.40;0.40;;;;;;;17.19;73.41;96482.00;29395;282;63009;-76
2021/07/31 01:45:09;;;;;;;0.40;0.40;;;;;;;17.19;73.19;96477.31;29395;266;63005;-76
2021/07/31 01:45:40;;;;;;;0.40;0.40;;;;;;;17.17;73.62;96482.34;29395;211;63009;-77
2021/07/31 01:46:11;;;;;;;0.40;0.40;;;;;;;17.17;73.75;96487.81;29395;204;63005;-76
2021/07/31 01:46:43;;;;;;;0.40;0.40;;;;;;;17.15;73.67;96478.34;29394;211;64009;-75
2021/07/31 01:47:18;;;;;;;0.45;0.45;;;;;;;17.14;74.16;96485.75;29395;206;63005;-75
2021/07/31 01:47:49;;;;;;;0.40;0.40;;;;;;;17.13;74.36;96494.34;29394;205;64009;-76
2021/07/31 01:48:21;;;;;;;0.40;0.40;;;;;;;17.12;75.45;96484.50;29395;212;63004;-76
2021/07/31 01:48:52;;;;;;;0.40;0.40;;;;;;;17.09;76.03;96477.78;29395;267;63010;-75
2021/07/31 01:49:23;;;;;;;0.40;0.40;;;;;;;17.06;75.87;96481.19;29395;205;63004;-75
2021/07/31 01:49:55;;;;;;;0.40;0.40;;;;;;;17.05;75.93;96472.19;29395;203;63009;-75
2021/07/31 01:50:26;;;;;;;0.40;0.40;;;;;;;17.04;76.15;96486.22;29395;241;63004;-77
2021/07/31 01:50:57;;;;;;;0.40;0.40;;;;;;;17.03;76.19;96468.19;29395;210;63008;-75
2021/07/31 01:51:28;;;;;;;0.40;0.40;;;;;;;17.01;74.56;96471.25;29395;197;63005;-75
2021/07/31 01:51:59;;;;;;;0.40;0.40;;;;;;;17.00;74.78;96474.34;29394;214;64009;-75
2021/07/31 01:52:31;;;;;;;0.40;0.40;;;;;;;16.99;75.42;96470.81;29395;249;63005;-75
2021/07/31 01:53:02;;;;;;;0.40;0.40;;;;;;;16.99;75.70;96468.06;29395;325;63009;-58
2021/07/31 01:53:33;;;;;;;0.40;0.40;;;;;;;17.00;76.20;96479.81;29394;202;64005;-75
2021/07/31 01:54:04;;;;;;;0.40;0.40;;;;;;;16.99;75.90;96478.22;29395;252;63009;-75
2021/07/31 01:54:36;;;;;;;0.40;0.40;;;;;;;17.00;75.88;96477.09;29395;217;63005;-76
2021/07/31 01:55:07;;;;;;;0.40;0.40;;;;;;;17.00;76.44;96468.88;29395;227;63027;-76
2021/07/31 01:55:38;;;;;;;0.40;0.40;;;;;;;17.01;76.34;96475.94;29395;216;63004;-76
2021/07/31 01:56:09;;;;;;;0.40;0.40;;;;;;;17.00;76.21;96468.88;29395;231;63004;-76
2021/07/31 01:56:44;;;;;;;0.40;0.40;;;;;;;17.00;76.10;96468.88;29395;356;63004;-75
2021/07/31 01:57:15;;;;;;;0.40;0.40;;;;;;;17.00;76.17;96474.34;29394;233;64009;-76
2021/07/31 01:57:46;;;;;;;0.40;0.40;;;;;;;17.00;76.44;96463.38;29394;230;64004;-76
2021/07/31 01:58:18;;;;;;;0.40;0.40;;;;;;;16.99;76.63;96475.50;29395;232;63008;-75
2021/07/31 01:58:49;;;;;;;0.40;0.40;;;;;;;17.00;77.31;96479.81;29395;250;63001;-75
2021/07/31 01:59:20;;;;;;;0.40;0.40;;;;;;;16.99;77.37;96475.50;29395;234;63009;-75
2021/07/31 01:59:51;;;;;;;0.40;0.40;;;;;;;16.96;77.64;96479.75;29395;303;63005;-75
2021/07/31 02:00:23;;;;;;;0.40;0.40;;;;;;;16.95;78.72;96477.34;29394;281;64001;-75
2021/07/31 02:00:55;;;;;;;0.40;0.40;;;;;;;16.93;78.65;96474.16;29395;228;63005;-76
2021/07/31 02:01:26;;;;;;;0.40;0.40;;;;;;;16.91;78.60;96479.19;29395;221;63009;-75
2021/07/31 02:01:58;;;;;;;0.40;0.40;;;;;;;16.89;78.68;96478.72;29395;216;63005;-75
2021/07/31 02:02:29;;;;;;;0.40;0.40;;;;;;;16.88;78.69;96471.63;29394;382;64009;-75
2021/07/31 02:03:00;;;;;;;0.40;0.40;;;;;;;16.87;78.62;96481.00;29395;292;63005;-75
2021/07/31 02:03:31;;;;;;;0.40;0.40;;;;;;;16.87;78.84;96481.00;29395;251;63020;-75
2021/07/31 02:04:03;;;;;;;0.32;0.32;;;;;;;16.87;78.76;96481.00;29395;237;63004;-73
2021/07/31 02:04:35;;;;;;;0.40;0.40;;;;;;;16.86;78.90;96480.19;29395;218;63009;-76
2021/07/31 02:05:10;;;;;;;0.40;0.40;;;;;;;16.86;78.90;96476.66;29395;196;63004;-75
2021/07/31 02:05:41;;;;;;;0.40;0.40;;;;;;;16.86;79.06;96482.13;29395;221;63017;-76
2021/07/31 02:06:12;;;;;;;0.40;0.40;;;;;;;16.85;79.06;96484.09;29395;215;63004;-76
2021/07/31 02:06:44;;;;;;;0.40;0.40;;;;;;;16.85;79.03;96477.81;29395;212;63009;-75
2021/07/31 02:07:16;;;;;;;0.40;0.40;;;;;;;16.86;79.03;96484.88;29394;219;64005;-76
2021/07/31 02:07:50;;;;;;;0.40;0.40;;;;;;;16.83;79.66;96475.41;29395;313;63009;-75
2021/07/31 02:08:22;;;;;;;0.40;0.40;;;;;;;16.81;79.89;96480.44;29395;218;63008;-75
2021/07/31 02:08:53;;;;;;;0.40;0.40;;;;;;;16.80;79.96;96483.50;29395;241;63009;-75
2021/07/31 02:09:24;;;;;;;0.40;0.40;;;;;;;16.80;79.75;96480.75;29394;216;64005;-74
2021/07/31 02:09:59;;;;;;;0.40;0.40;;;;;;;16.80;79.81;96475.28;29395;215;63009;-76
2021/07/31 02:10:31;;;;;;;0.40;0.40;;;;;;;16.79;80.37;96479.97;29395;218;63005;-76
2021/07/31 02:11:02;;;;;;;0.40;0.40;;;;;;;16.77;80.02;96476.78;29395;212;63009;-76
2021/07/31 02:11:34;;;;;;;0.40;0.40;;;;;;;16.77;80.27;96481.44;29394;196;64004;-75
2021/07/31 02:12:09;;;;;;;0.40;0.40;;;;;;;16.74;80.51;96472.78;29395;198;63017;-75
2021/07/31 02:12:40;;;;;;;0.40;0.40;;;;;;;16.73;80.50;96476.66;29395;236;63004;-76
2021/07/31 02:13:11;;;;;;;0.40;0.40;;;;;;;16.72;80.71;96480.53;29395;231;63008;-76
2021/07/31 02:13:43;;;;;;;0.40;0.40;;;;;;;16.71;80.50;96478.94;29395;259;63004;-76
2021/07/31 02:14:15;;;;;;;0.40;0.40;;;;;;;16.71;80.40;96476.19;29395;291;63009;-75
2021/07/31 02:14:46;;;;;;;0.40;0.40;;;;;;;16.72;80.50;96469.56;29395;276;63005;-75
2021/07/31 02:15:17;;;;;;;0.43;0.43;;;;;;;16.71;80.60;96470.72;29395;212;63009;-75
2021/07/31 02:15:49;;;;;;;0.40;0.40;;;;;;;16.71;80.77;96476.19;29394;203;64005;-76
2021/07/31 02:16:27;;;;;;;0.40;0.40;;;;;;;16.71;80.64;96475.41;29395;219;63009;-76
2021/07/31 02:16:58;;;;;;;0.40;0.40;;;;;;;16.70;80.59;96476.53;29395;226;63005;-75
2021/07/31 02:17:31;;;;;;;0.40;0.40;;;;;;;16.68;80.83;96474.13;29395;197;63009;-76
2021/07/31 02:18:02;;;;;;;0.43;0.43;;;;;;;16.67;81.26;96478.00;29395;264;63004;-75
2021/07/31 02:18:34;;;;;;;0.40;0.40;;;;;;;16.65;81.24;96477.56;29395;371;63009;-76
2021/07/31 02:19:05;;;;;;;0.40;0.40;;;;;;;16.64;81.52;96478.69;29395;230;63004;-75
2021/07/31 02:19:36;;;;;;;0.40;0.40;;;;;;;16.61;81.41;96475.84;29395;235;63009;-76
2021/07/31 02:20:09;;;;;;;0.40;0.40;;;;;;;16.57;81.63;96467.50;29395;304;63004;-77
2021/07/31 02:20:41;;;;;;;0.40;0.40;;;;;;;16.56;81.64;96471.37;29394;225;64025;-77
2021/07/31 02:21:12;;;;;;;0.40;0.40;;;;;;;16.56;81.54;96481.53;29395;238;63004;-75
2021/07/31 02:21:45;;;;;;;0.40;0.40;;;;;;;16.53;81.37;96474.78;29395;223;63009;-76
2021/07/31 02:22:16;;;;;;;0.40;0.40;;;;;;;16.53;81.51;96482.22;29395;218;63008;-75
2021/07/31 02:22:47;;;;;;;0.40;0.40;;;;;;;16.50;81.72;96478.22;29395;236;63009;-76
2021/07/31 02:23:18;;;;;;;0.40;0.40;;;;;;;16.47;81.98;96473.41;29395;230;63005;-76
2021/07/31 02:23:49;;;;;;;0.40;0.40;;;;;;;16.45;81.93;96475.69;29395;227;63009;-75
2021/07/31 02:24:21;;;;;;;0.50;0.50;;;;;;;16.45;81.88;96477.63;29395;395;63005;-76
2021/07/31 02:24:52;;;;;;;0.40;0.40;;;;;;;16.43;82.56;96475.22;29394;240;64009;-76
2021/07/31 02:25:23;;;;;;;0.50;0.50;;;;;;;16.38;82.81;96475.44;29395;210;63004;-75
2021/07/31 02:25:55;;;;;;;0.40;0.40;;;;;;;16.37;83.05;96479.31;29395;298;63018;-76
2021/07/31 02:26:26;;;;;;;0.40;0.40;;;;;;;16.35;83.18;96481.59;29395;204;63004;-76
2021/07/31 02:26:57;;;;;;;0.40;0.40;;;;;;;16.32;83.13;96487.75;29395;213;63009;-76
2021/07/31 02:27:28;;;;;;;0.40;0.40;;;;;;;16.32;82.93;96487.75;29395;230;63004;-75
2021/07/31 02:28:00;;;;;;;0.40;0.40;;;;;;;16.31;83.02;96483.41;29395;256;63027;-76
2021/07/31 02:28:31;;;;;;;0.40;0.40;;;;;;;16.30;82.98;96484.56;29394;211;64005;-76
2021/07/31 02:29:03;;;;;;;0.60;0.60;;;;;;;16.27;82.95;96485.25;29395;197;63009;-74
2021/07/31 02:29:35;;;;;;;0.40;0.40;;;;;;;16.24;83.11;96483.19;29395;212;63005;-76
2021/07/31 02:30:07;;;;;;;0.40;0.40;;;;;;;16.23;82.89;96484.34;29395;219;63009;-75
2021/07/31 02:30:38;;;;;;;0.40;0.40;;;;;;;16.21;82.97;96473.72;29395;208;63005;-76
2021/07/31 02:31:11;;;;;;;0.52;0.52;;;;;;;16.22;82.85;96488.22;29395;210;63009;-76
2021/07/31 02:31:43;;;;;;;0.40;0.40;;;;;;;16.23;82.71;96484.34;29394;227;64005;-76
2021/07/31 02:32:14;;;;;;;0.40;0.40;;;;;;;16.22;82.81;96477.25;29395;256;63009;-76
2021/07/31 02:32:45;;;;;;;0.50;0.50;;;;;;;16.20;82.80;96480.34;29395;244;63004;-75